createdAt,value
2022-09-18T00:01:42.942Z,11.40
2022-09-18T00:04:11.194Z,11.30
2022-09-18T00:06:38.727Z,11.30
2022-09-18T00:09:06.263Z,11.30
2022-09-18T00:11:33.790Z,11.30
2022-09-18T00:14:02.142Z,11.30
2022-09-18T00:16:29.733Z,11.30
2022-09-18T00:18:57.220Z,11.30
2022-09-18T00:21:24.802Z,11.50
2022-09-18T00:23:55.311Z,11.60
2022-09-18T00:26:22.846Z,11.60
2022-09-18T00:28:50.409Z,11.50
2022-09-18T00:31:18.991Z,11.50
2022-09-18T00:33:46.470Z,11.50
2022-09-18T00:36:14.072Z,11.50
2022-09-18T00:38:41.626Z,11.40
2022-09-18T00:41:09.174Z,11.40
2022-09-18T00:43:36.745Z,11.40
2022-09-18T00:46:09.990Z,11.70
2022-09-18T00:48:40.676Z,11.90
2022-09-18T00:51:09.215Z,11.90
2022-09-18T00:53:36.740Z,11.80
2022-09-18T00:56:05.046Z,11.70
2022-09-18T00:58:32.629Z,11.70
2022-09-18T01:01:00.192Z,11.70
2022-09-18T01:03:27.692Z,11.60
2022-09-18T01:06:17.076Z,11.50
2022-09-18T01:08:56.308Z,11.50
2022-09-18T01:11:29.583Z,11.50
2022-09-18T01:14:07.227Z,11.40
2022-09-18T01:16:40.660Z,11.40
2022-09-18T01:19:26.396Z,11.40
2022-09-18T01:22:28.522Z,11.40
2022-09-18T01:24:59.614Z,11.40
2022-09-18T01:27:42.171Z,11.30
2022-09-18T01:30:09.716Z,11.30
2022-09-18T01:32:55.809Z,11.30
2022-09-18T01:35:40.428Z,11.30
2022-09-18T01:37:54.494Z,11.30
2022-09-18T01:40:33.977Z,11.30
2022-09-18T01:43:01.447Z,11.30
2022-09-18T01:45:28.971Z,11.30
2022-09-18T01:47:59.203Z,11.30
2022-09-18T01:50:26.749Z,11.30
2022-09-18T01:52:54.293Z,11.50
2022-09-18T01:55:21.847Z,11.50
2022-09-18T01:57:57.879Z,11.50
2022-09-18T02:00:25.444Z,11.50
2022-09-18T02:02:56.047Z,11.40
2022-09-18T02:05:32.130Z,11.40
2022-09-18T02:08:08.793Z,11.40
2022-09-18T02:10:36.347Z,11.40
2022-09-18T02:13:03.892Z,11.30
2022-09-18T02:15:31.434Z,11.30
2022-09-18T02:17:58.970Z,11.30
2022-09-18T02:20:29.491Z,11.30
2022-09-18T02:22:57.077Z,11.30
2022-09-18T02:25:24.558Z,11.50
2022-09-18T02:27:53.844Z,11.70
2022-09-18T02:30:22.167Z,11.60
2022-09-18T02:32:49.692Z,11.50
2022-09-18T02:35:18.004Z,11.40
2022-09-18T02:38:06.683Z,11.40
2022-09-18T02:40:37.062Z,11.40
2022-09-18T02:43:29.012Z,11.30
2022-09-18T02:46:11.575Z,11.30
2022-09-18T02:48:45.939Z,11.20
2022-09-18T02:51:13.463Z,11.20
2022-09-18T02:53:50.469Z,11.10
2022-09-18T02:56:18.017Z,11.10
2022-09-18T02:58:52.503Z,11.10
2022-09-18T03:01:20.097Z,11.10
2022-09-18T03:03:48.460Z,11.10
2022-09-18T03:06:15.933Z,11.10
2022-09-18T03:08:43.507Z,11.00
2022-09-18T03:11:11.064Z,11.10
2022-09-18T03:13:38.578Z,11.00
2022-09-18T03:16:06.575Z,11.00
2022-09-18T03:18:34.074Z,11.00
2022-09-18T03:21:01.588Z,11.00
2022-09-18T03:23:29.920Z,11.20
2022-09-18T03:25:57.434Z,11.20
2022-09-18T03:28:25.725Z,11.10
2022-09-18T03:31:04.031Z,11.10
2022-09-18T03:33:32.313Z,11.00
2022-09-18T03:35:59.857Z,11.00
2022-09-18T03:38:27.407Z,10.90
2022-09-18T03:40:54.946Z,10.90
2022-09-18T03:43:22.467Z,10.80
2022-09-18T03:45:50.434Z,10.80
2022-09-18T03:48:17.946Z,10.70
2022-09-18T03:50:46.239Z,10.60
2022-09-18T03:53:13.784Z,10.60
2022-09-18T03:55:42.098Z,10.60
2022-09-18T03:58:09.633Z,10.60
2022-09-18T04:00:37.188Z,10.50
2022-09-18T04:03:05.518Z,10.50
2022-09-18T04:05:32.990Z,10.50
2022-09-18T04:08:00.570Z,10.50
2022-09-18T04:10:28.873Z,10.50
2022-09-18T04:12:56.408Z,10.40
2022-09-18T04:15:24.760Z,10.50
2022-09-18T04:17:52.993Z,10.50
2022-09-18T04:20:20.444Z,10.50
2022-09-18T04:22:49.230Z,10.70
2022-09-18T04:25:16.755Z,10.70
2022-09-18T04:27:45.126Z,10.60
2022-09-18T04:30:13.460Z,10.60
2022-09-18T04:32:41.014Z,10.60
2022-09-18T04:35:08.589Z,10.60
2022-09-18T04:37:36.133Z,10.60
2022-09-18T04:40:03.721Z,10.60
2022-09-18T04:42:31.227Z,10.80
2022-09-18T04:44:58.822Z,10.80
2022-09-18T04:47:26.416Z,10.70
2022-09-18T04:49:53.903Z,10.70
2022-09-18T04:52:21.467Z,10.60
2022-09-18T04:54:48.991Z,10.60
2022-09-18T04:57:17.295Z,10.50
2022-09-18T04:59:45.159Z,10.50
2022-09-18T05:02:12.733Z,10.40
2022-09-18T05:04:40.996Z,10.30
2022-09-18T05:07:08.571Z,10.30
2022-09-18T05:09:36.087Z,10.30
2022-09-18T05:12:04.381Z,10.20
2022-09-18T05:14:32.733Z,10.20
2022-09-18T05:17:00.267Z,10.20
2022-09-18T05:19:27.797Z,10.20
2022-09-18T05:21:55.363Z,10.10
2022-09-18T05:24:22.888Z,10.40
2022-09-18T05:26:51.192Z,10.30
2022-09-18T05:29:18.766Z,10.30
2022-09-18T05:31:46.390Z,10.20
2022-09-18T05:34:13.847Z,10.20
2022-09-18T05:36:41.452Z,10.20
2022-09-18T05:39:08.997Z,10.10
2022-09-18T05:41:36.523Z,10.10
2022-09-18T05:44:04.878Z,10.10
2022-09-18T05:46:32.441Z,10.00
2022-09-18T05:49:00.017Z,10.10
2022-09-18T05:51:27.533Z,10.10
2022-09-18T05:53:55.060Z,10.10
2022-09-18T05:56:22.593Z,10.10
2022-09-18T05:58:50.926Z,10.30
2022-09-18T06:01:18.467Z,10.30
2022-09-18T06:03:45.991Z,10.30
2022-09-18T06:06:13.810Z,10.30
2022-09-18T06:08:41.356Z,10.30
2022-09-18T06:11:09.000Z,10.30
2022-09-18T06:13:36.568Z,10.50
2022-09-18T06:16:04.187Z,10.50
2022-09-18T06:18:31.638Z,10.40
2022-09-18T06:20:59.989Z,10.30
2022-09-18T06:23:27.522Z,10.30
2022-09-18T06:25:57.863Z,10.30
2022-09-18T06:28:25.428Z,10.30
2022-09-18T06:30:52.962Z,10.40
2022-09-18T06:33:20.482Z,10.40
2022-09-18T06:35:48.057Z,10.70
2022-09-18T06:38:15.591Z,10.70
2022-09-18T06:40:52.962Z,10.70
2022-09-18T06:43:20.506Z,10.70
2022-09-18T06:45:56.833Z,10.70
2022-09-18T06:48:24.402Z,10.90
2022-09-18T06:50:55.029Z,11.00
2022-09-18T06:53:22.553Z,10.90
2022-09-18T06:55:51.172Z,10.90
2022-09-18T06:58:18.715Z,11.00
2022-09-18T07:00:46.322Z,11.00
2022-09-18T07:03:14.612Z,11.00
2022-09-18T07:05:42.136Z,11.00
2022-09-18T07:08:09.662Z,11.10
2022-09-18T07:10:37.994Z,11.30
2022-09-18T07:13:05.526Z,11.30
2022-09-18T07:15:33.064Z,11.30
2022-09-18T07:18:00.640Z,11.30
2022-09-18T07:20:28.166Z,11.40
2022-09-18T07:22:56.448Z,11.40
2022-09-18T07:25:24.800Z,11.50
2022-09-18T07:27:52.343Z,11.50
2022-09-18T07:30:19.859Z,11.50
2022-09-18T07:32:47.442Z,11.80
2022-09-18T07:35:14.970Z,12.10
2022-09-18T07:37:42.507Z,12.10
2022-09-18T07:40:10.896Z,12.00
2022-09-18T07:42:38.766Z,12.00
2022-09-18T07:45:07.119Z,12.00
2022-09-18T07:47:34.703Z,12.00
2022-09-18T07:50:03.007Z,12.00
2022-09-18T07:52:30.540Z,12.00
2022-09-18T07:54:59.347Z,12.10
2022-09-18T07:57:26.878Z,12.10
2022-09-18T07:59:55.174Z,12.30
2022-09-18T08:02:23.669Z,12.50
2022-09-18T08:04:51.076Z,12.40
2022-09-18T08:07:18.614Z,12.60
2022-09-18T08:09:46.221Z,12.70
2022-09-18T08:12:14.515Z,12.90
2022-09-18T08:14:42.043Z,12.90
2022-09-18T08:17:10.406Z,13.20
2022-09-18T08:19:37.947Z,13.20
2022-09-18T08:22:05.475Z,13.30
2022-09-18T08:24:33.043Z,13.40
2022-09-18T08:27:00.602Z,13.40
2022-09-18T08:29:28.142Z,13.30
2022-09-18T08:31:56.018Z,13.40
2022-09-18T08:34:23.495Z,13.40
2022-09-18T08:36:51.039Z,13.40
2022-09-18T08:39:18.614Z,13.40
2022-09-18T08:41:46.149Z,13.50
2022-09-18T08:44:19.590Z,13.50
2022-09-18T08:47:17.571Z,13.50
2022-09-18T08:49:47.920Z,13.60
2022-09-18T08:52:18.123Z,13.90
2022-09-18T08:54:46.465Z,14.00
2022-09-18T08:57:16.662Z,14.00
2022-09-18T08:59:46.772Z,14.10
2022-09-18T09:02:18.517Z,14.20
2022-09-18T09:04:46.118Z,14.30
2022-09-18T09:07:28.445Z,14.40
2022-09-18T09:10:10.748Z,14.40
2022-09-18T09:12:56.587Z,14.50
2022-09-18T09:15:29.724Z,14.70
2022-09-18T09:18:12.170Z,15.00
2022-09-18T09:20:39.690Z,15.00
2022-09-18T09:23:25.363Z,15.30
2022-09-18T09:26:10.801Z,15.30
2022-09-18T09:29:00.289Z,15.70
2022-09-18T09:31:27.857Z,15.70
2022-09-18T09:34:19.557Z,15.70
2022-09-18T09:36:50.294Z,15.60
2022-09-18T09:39:29.865Z,15.50
2022-09-18T09:42:06.277Z,15.50
2022-09-18T09:44:37.685Z,15.50
2022-09-18T09:47:14.139Z,15.50
2022-09-18T09:49:53.669Z,15.50
2022-09-18T09:52:24.640Z,15.40
2022-09-18T09:54:58.205Z,15.50
2022-09-18T09:57:25.760Z,15.40
2022-09-18T09:59:53.288Z,15.40
2022-09-18T10:02:33.356Z,15.40
2022-09-18T10:05:10.490Z,15.40
2022-09-18T10:07:38.330Z,15.40
2022-09-18T10:10:39.649Z,15.30
2022-09-18T10:13:23.371Z,15.30
2022-09-18T10:15:51.697Z,15.30
2022-09-18T10:18:19.203Z,15.30
2022-09-18T10:20:46.766Z,15.30
2022-09-18T10:23:14.313Z,15.30
2022-09-18T10:25:44.534Z,15.30
2022-09-18T10:28:14.802Z,15.50
2022-09-18T10:30:54.280Z,15.60
2022-09-18T10:33:40.252Z,15.60
2022-09-18T10:36:10.836Z,15.60
2022-09-18T10:38:39.139Z,15.50
2022-09-18T10:41:18.502Z,15.50
2022-09-18T10:43:57.705Z,15.50
2022-09-18T10:46:25.933Z,15.50
2022-09-18T10:48:53.422Z,15.40
2022-09-18T10:51:21.735Z,15.40
2022-09-18T10:54:01.201Z,15.40
2022-09-18T10:56:28.984Z,15.40
2022-09-18T10:58:56.508Z,15.40
2022-09-18T11:01:24.712Z,15.60
2022-09-18T11:04:01.445Z,15.70
2022-09-18T11:06:30.038Z,15.60
2022-09-18T11:08:57.583Z,15.60
2022-09-18T11:11:27.560Z,15.60
2022-09-18T11:14:01.602Z,15.50
2022-09-18T11:16:29.232Z,15.50
2022-09-18T11:19:08.921Z,15.60
2022-09-18T11:21:36.456Z,15.60
2022-09-18T11:24:04.046Z,15.60
2022-09-18T11:26:32.611Z,15.80
2022-09-18T11:29:06.043Z,15.80
2022-09-18T11:31:42.912Z,15.90
2022-09-18T11:34:17.134Z,15.90
2022-09-18T11:36:44.658Z,15.90
2022-09-18T11:39:14.923Z,15.90
2022-09-18T11:41:42.457Z,16.00
2022-09-18T11:44:12.927Z,16.00
2022-09-18T11:47:08.361Z,16.10
2022-09-18T11:49:41.515Z,16.10
2022-09-18T11:52:14.474Z,16.10
2022-09-18T11:55:00.157Z,16.10
2022-09-18T11:57:36.483Z,16.30
2022-09-18T12:00:13.383Z,16.30
2022-09-18T12:02:41.066Z,16.20
2022-09-18T12:05:14.174Z,16.10
2022-09-18T12:07:46.673Z,16.00
2022-09-18T12:10:17.232Z,16.00
2022-09-18T12:12:47.432Z,15.90
2022-09-18T12:15:20.755Z,15.90
2022-09-18T12:17:57.355Z,16.00
2022-09-18T12:20:46.029Z,16.00
2022-09-18T12:23:13.571Z,16.00
2022-09-18T12:26:06.961Z,15.90
2022-09-18T12:29:05.871Z,15.90
2022-09-18T12:31:42.078Z,15.90
2022-09-18T12:34:39.972Z,15.90
2022-09-18T12:37:19.341Z,15.80
2022-09-18T12:39:53.353Z,15.80
2022-09-18T12:42:35.589Z,15.90
2022-09-18T12:45:05.791Z,16.00
2022-09-18T12:47:51.553Z,16.30
2022-09-18T12:50:22.577Z,16.40
2022-09-18T12:53:08.717Z,16.40
2022-09-18T12:55:29.004Z,16.50
2022-09-18T12:58:03.087Z,16.70
2022-09-18T13:00:30.632Z,16.70
2022-09-18T13:02:58.539Z,16.80
2022-09-18T13:05:38.171Z,16.80
2022-09-18T13:08:14.535Z,16.80
2022-09-18T13:10:42.067Z,16.90
2022-09-18T13:13:19.182Z,16.80
2022-09-18T13:16:05.128Z,16.70
2022-09-18T13:18:36.324Z,16.70
2022-09-18T13:21:03.863Z,16.70
2022-09-18T13:23:33.836Z,16.70
2022-09-18T13:26:01.398Z,16.60
2022-09-18T13:28:28.935Z,16.60
2022-09-18T13:31:15.141Z,16.60
2022-09-18T13:34:00.839Z,16.60
2022-09-18T13:36:28.309Z,16.50
2022-09-18T13:38:56.605Z,16.90
2022-09-18T13:41:25.090Z,16.90
2022-09-18T13:43:58.131Z,16.90
2022-09-18T13:46:31.145Z,17.00
2022-09-18T13:48:58.637Z,17.10
2022-09-18T13:51:31.452Z,17.20
2022-09-18T13:54:14.999Z,17.30
2022-09-18T13:57:10.074Z,17.60
2022-09-18T13:59:50.958Z,17.90
2022-09-18T14:02:24.464Z,17.70
2022-09-18T14:04:57.753Z,17.50
2022-09-18T14:07:28.822Z,17.40
2022-09-18T14:10:04.616Z,17.40
2022-09-18T14:12:29.624Z,17.30
2022-09-18T14:15:06.128Z,17.30
2022-09-18T14:17:34.440Z,17.40
2022-09-18T14:20:02.259Z,17.40
2022-09-18T14:22:30.699Z,17.40
2022-09-18T14:24:58.251Z,17.40
2022-09-18T14:27:56.229Z,17.20
2022-09-18T14:30:27.338Z,17.10
2022-09-18T14:32:57.850Z,16.90
2022-09-18T14:35:37.145Z,16.90
2022-09-18T14:38:04.700Z,17.10
2022-09-18T14:40:32.336Z,17.10
2022-09-18T14:42:59.831Z,17.30
2022-09-18T14:45:27.427Z,17.20
2022-09-18T14:47:54.899Z,17.20
2022-09-18T14:50:30.963Z,17.10
2022-09-18T14:52:59.236Z,16.90
2022-09-18T14:55:26.771Z,16.90
2022-09-18T14:57:55.093Z,16.70
2022-09-18T15:00:22.627Z,16.70
2022-09-18T15:02:50.202Z,16.60
2022-09-18T15:05:17.760Z,16.50
2022-09-18T15:07:48.075Z,16.50
2022-09-18T15:10:15.629Z,16.50
2022-09-18T15:12:43.205Z,16.40
2022-09-18T15:15:25.739Z,16.40
2022-09-18T15:17:56.257Z,16.30
2022-09-18T15:20:23.801Z,16.30
2022-09-18T15:22:53.848Z,16.20
2022-09-18T15:25:21.426Z,16.10
2022-09-18T15:27:48.952Z,16.10
2022-09-18T15:30:17.391Z,16.10
2022-09-18T15:32:48.104Z,16.40
2022-09-18T15:35:21.335Z,16.40
2022-09-18T15:37:57.228Z,16.30
2022-09-18T15:40:36.557Z,16.30
2022-09-18T15:43:06.571Z,16.30
2022-09-18T15:45:34.106Z,16.20
2022-09-18T15:48:02.410Z,16.00
2022-09-18T15:50:30.008Z,16.00
2022-09-18T15:52:57.532Z,16.00
2022-09-18T15:55:25.058Z,16.00
2022-09-18T15:57:53.398Z,16.30
2022-09-18T16:00:23.582Z,16.30
2022-09-18T16:03:05.926Z,16.30
2022-09-18T16:05:33.462Z,16.30
2022-09-18T16:08:19.251Z,16.20
2022-09-18T16:10:46.786Z,16.40
2022-09-18T16:13:14.325Z,16.40
2022-09-18T16:15:45.100Z,16.20
2022-09-18T16:18:27.420Z,16.20
2022-09-18T16:20:55.990Z,16.10
2022-09-18T16:23:29.123Z,15.90
2022-09-18T16:26:05.510Z,15.80
2022-09-18T16:28:41.998Z,15.70
2022-09-18T16:31:09.688Z,15.70
2022-09-18T16:33:37.972Z,15.50
2022-09-18T16:36:05.507Z,15.50
2022-09-18T16:38:33.069Z,15.40
2022-09-18T16:41:00.594Z,15.60
2022-09-18T16:43:28.133Z,15.50
2022-09-18T16:45:57.599Z,15.30
2022-09-18T16:48:25.126Z,15.30
2022-09-18T16:50:52.649Z,15.20
2022-09-18T16:53:21.016Z,15.10
2022-09-18T16:55:48.551Z,15.10
2022-09-18T16:58:16.095Z,15.00
2022-09-18T17:00:43.741Z,15.20
2022-09-18T17:03:11.281Z,15.20
2022-09-18T17:05:38.764Z,15.10
2022-09-18T17:08:06.348Z,15.00
2022-09-18T17:10:33.890Z,14.90
2022-09-18T17:13:01.425Z,14.80
2022-09-18T17:15:29.933Z,14.80
2022-09-18T17:17:57.507Z,14.70
2022-09-18T17:20:25.043Z,14.70
2022-09-18T17:22:52.610Z,14.70
2022-09-18T17:25:20.155Z,14.60
2022-09-18T17:27:47.679Z,14.60
2022-09-18T17:30:16.031Z,14.50
2022-09-18T17:32:43.577Z,14.50
2022-09-18T17:35:11.122Z,14.50
2022-09-18T17:37:38.696Z,14.70
2022-09-18T17:40:06.388Z,14.60
2022-09-18T17:42:33.848Z,14.50
2022-09-18T17:45:02.374Z,14.50
2022-09-18T17:47:29.733Z,14.30
2022-09-18T17:49:57.248Z,14.30
2022-09-18T17:52:25.590Z,14.20
2022-09-18T17:54:53.115Z,14.20
2022-09-18T17:57:20.689Z,14.20
2022-09-18T17:59:48.253Z,14.20
2022-09-18T18:02:15.900Z,14.10
2022-09-18T18:04:43.314Z,14.10
2022-09-18T18:07:11.222Z,14.10
2022-09-18T18:09:39.947Z,14.10
2022-09-18T18:12:07.482Z,14.00
2022-09-18T18:14:35.036Z,14.00
2022-09-18T18:17:02.564Z,14.00
2022-09-18T18:19:30.099Z,13.90
2022-09-18T18:21:57.670Z,14.00
2022-09-18T18:24:25.988Z,13.90
2022-09-18T18:26:53.491Z,13.90
2022-09-18T18:29:21.966Z,13.90
2022-09-18T18:31:49.531Z,13.90
2022-09-18T18:34:17.016Z,13.90
2022-09-18T18:36:44.576Z,14.10
2022-09-18T18:39:12.120Z,14.10
2022-09-18T18:41:39.645Z,14.00
2022-09-18T18:44:07.219Z,14.00
2022-09-18T18:46:34.787Z,14.20
2022-09-18T18:49:02.350Z,14.10
2022-09-18T18:51:32.574Z,14.10
2022-09-18T18:54:02.927Z,14.00
2022-09-18T18:56:30.485Z,13.90
2022-09-18T18:58:58.069Z,14.10
2022-09-18T19:01:25.765Z,14.10
2022-09-18T19:03:56.269Z,14.10
2022-09-18T19:06:27.942Z,14.00
2022-09-18T19:08:55.355Z,13.90
2022-09-18T19:11:22.878Z,13.90
2022-09-18T19:13:51.219Z,13.80
2022-09-18T19:16:18.902Z,13.80
2022-09-18T19:18:46.286Z,13.80
2022-09-18T19:21:15.604Z,14.00
2022-09-18T19:23:43.133Z,13.90
2022-09-18T19:26:11.471Z,13.80
2022-09-18T19:28:39.318Z,13.80
2022-09-18T19:31:06.974Z,13.80
2022-09-18T19:33:34.467Z,13.70
2022-09-18T19:36:08.105Z,13.70
2022-09-18T19:38:36.402Z,13.70
2022-09-18T19:41:15.999Z,13.60
2022-09-18T19:43:43.537Z,13.60
2022-09-18T19:46:11.093Z,13.60
2022-09-18T19:48:38.933Z,13.60
2022-09-18T19:51:06.556Z,13.60
2022-09-18T19:53:34.859Z,13.60
2022-09-18T19:56:02.444Z,13.60
2022-09-18T19:58:29.979Z,13.60
2022-09-18T20:00:57.568Z,13.60
2022-09-18T20:03:25.875Z,13.90
2022-09-18T20:05:53.409Z,13.80
2022-09-18T20:08:20.952Z,13.90
2022-09-18T20:10:48.512Z,13.80
2022-09-18T20:13:16.037Z,13.70
2022-09-18T20:15:44.351Z,13.50
2022-09-18T20:18:11.914Z,13.50
2022-09-18T20:20:39.447Z,13.40
2022-09-18T20:23:06.990Z,13.30
2022-09-18T20:25:35.360Z,13.20
2022-09-18T20:28:02.904Z,13.10
2022-09-18T20:30:30.435Z,13.10
2022-09-18T20:32:59.181Z,13.00
2022-09-18T20:35:26.726Z,13.00
2022-09-18T20:37:55.029Z,12.90
2022-09-18T20:40:22.692Z,12.90
2022-09-18T20:42:50.175Z,12.90
2022-09-18T20:45:17.759Z,12.80
2022-09-18T20:47:45.343Z,12.80
2022-09-18T20:50:13.690Z,12.80
2022-09-18T20:52:41.225Z,12.70
2022-09-18T20:55:08.808Z,12.80
2022-09-18T20:57:36.336Z,12.90
2022-09-18T21:00:06.445Z,12.90
2022-09-18T21:02:36.768Z,13.10
2022-09-18T21:05:04.302Z,13.00
2022-09-18T21:07:32.615Z,12.80
2022-09-18T21:10:02.463Z,12.80
2022-09-18T21:12:29.882Z,12.70
2022-09-18T21:14:57.417Z,12.60
2022-09-18T21:17:24.985Z,12.60
2022-09-18T21:19:52.506Z,12.50
2022-09-18T21:22:20.040Z,12.50
2022-09-18T21:24:47.624Z,12.40
2022-09-18T21:27:15.149Z,12.40
2022-09-18T21:29:42.694Z,12.30
2022-09-18T21:32:10.253Z,12.30
2022-09-18T21:34:37.778Z,12.40
2022-09-18T21:37:06.110Z,12.30
2022-09-18T21:39:33.715Z,12.30
2022-09-18T21:42:02.009Z,12.50
2022-09-18T21:44:29.567Z,12.50
2022-09-18T21:46:57.156Z,12.40
2022-09-18T21:49:25.402Z,12.30
2022-09-18T21:51:55.646Z,12.30
2022-09-18T21:54:23.213Z,12.30
2022-09-18T21:56:50.755Z,12.20
2022-09-18T21:59:18.290Z,12.20
2022-09-18T22:01:45.884Z,12.20
2022-09-18T22:04:13.391Z,12.20
2022-09-18T22:06:41.711Z,12.10
2022-09-18T22:09:09.270Z,12.10
2022-09-18T22:11:37.760Z,12.10
2022-09-18T22:14:05.187Z,12.10
2022-09-18T22:16:32.769Z,12.00
2022-09-18T22:19:00.276Z,11.90
2022-09-18T22:21:27.797Z,12.00
2022-09-18T22:23:56.358Z,11.90
2022-09-18T22:26:23.900Z,11.90
2022-09-18T22:28:52.207Z,11.80
2022-09-18T22:31:19.819Z,11.80
2022-09-18T22:33:47.319Z,11.80
2022-09-18T22:36:14.837Z,11.70
2022-09-18T22:38:43.175Z,11.60
2022-09-18T22:41:10.688Z,11.60
2022-09-18T22:43:38.234Z,11.50
2022-09-18T22:46:05.799Z,11.50
2022-09-18T22:48:34.101Z,11.40
2022-09-18T22:51:16.346Z,11.30
2022-09-18T22:53:45.969Z,11.30
2022-09-18T22:56:11.408Z,11.30
2022-09-18T22:58:39.042Z,11.40
2022-09-18T23:01:12.556Z,11.40
2022-09-18T23:03:40.856Z,11.30
2022-09-18T23:06:08.470Z,11.30
2022-09-18T23:08:36.005Z,11.20
2022-09-18T23:11:09.536Z,11.20
2022-09-18T23:13:37.121Z,11.10
2022-09-18T23:16:07.547Z,11.00
2022-09-18T23:18:35.824Z,10.90
2022-09-18T23:21:03.432Z,10.90
2022-09-18T23:23:31.705Z,10.90
2022-09-18T23:26:07.645Z,10.80
2022-09-18T23:28:35.177Z,10.80
2022-09-18T23:31:02.701Z,10.70
2022-09-18T23:33:30.256Z,10.70
2022-09-18T23:35:57.776Z,10.60
2022-09-18T23:38:25.312Z,10.60
2022-09-18T23:40:53.181Z,10.60
2022-09-18T23:43:20.704Z,10.50
2022-09-18T23:45:48.253Z,10.50
2022-09-18T23:48:15.800Z,10.50
2022-09-18T23:50:43.353Z,10.50
2022-09-18T23:53:10.888Z,10.70
2022-09-18T23:55:38.439Z,10.90
2022-09-18T23:58:05.963Z,10.90
